createdAt,value
2022-11-15T00:01:20.454Z,10.20
2022-11-15T00:04:10.629Z,10.20
2022-11-15T00:07:02.517Z,10.20
2022-11-15T00:09:57.045Z,10.10
2022-11-15T00:12:45.843Z,10.10
2022-11-15T00:15:42.237Z,10.10
2022-11-15T00:18:32.536Z,10.00
2022-11-15T00:21:20.055Z,10.00
2022-11-15T00:24:09.059Z,9.90
2022-11-15T00:27:08.062Z,9.90
2022-11-15T00:29:56.372Z,9.90
2022-11-15T00:32:42.665Z,9.80
2022-11-15T00:35:29.594Z,9.80
2022-11-15T00:38:18.910Z,9.70
2022-11-15T00:41:09.713Z,9.70
2022-11-15T00:44:00.331Z,9.70
2022-11-15T00:49:50.624Z,9.60
2022-11-15T00:52:37.257Z,9.60
2022-11-15T00:55:23.861Z,9.70
2022-11-15T00:58:10.446Z,9.70
2022-11-15T01:00:59.720Z,9.70
2022-11-15T01:03:48.999Z,9.70
2022-11-15T01:06:36.727Z,9.70
2022-11-15T01:09:23.029Z,9.70
2022-11-15T01:12:09.537Z,9.70
2022-11-15T01:15:05.718Z,9.70
2022-11-15T01:17:59.050Z,9.70
2022-11-15T01:20:51.574Z,9.70
2022-11-15T01:23:45.613Z,9.70
2022-11-15T01:26:35.314Z,9.70
2022-11-15T01:29:25.114Z,9.70
2022-11-15T01:32:12.891Z,9.70
2022-11-15T01:34:59.047Z,9.70
2022-11-15T01:37:50.039Z,9.70
2022-11-15T01:40:36.852Z,9.70
2022-11-15T01:43:26.559Z,9.70
2022-11-15T01:46:38.561Z,9.80
2022-11-15T01:49:26.062Z,9.80
2022-11-15T01:52:19.855Z,9.80
2022-11-15T01:55:14.682Z,9.80
2022-11-15T01:58:04.327Z,9.80
2022-11-15T02:00:52.803Z,9.80
2022-11-15T02:03:48.426Z,9.80
2022-11-15T02:06:36.887Z,9.80
2022-11-15T02:09:23.646Z,9.80
2022-11-15T02:12:14.784Z,9.80
2022-11-15T02:15:02.396Z,9.80
2022-11-15T02:18:02.886Z,9.70
2022-11-15T02:21:07.768Z,9.80
2022-11-15T02:23:59.946Z,9.80
2022-11-15T02:27:04.913Z,9.80
2022-11-15T02:30:22.374Z,9.80
2022-11-15T02:33:17.607Z,9.80
2022-11-15T02:36:24.469Z,9.90
2022-11-15T02:39:32.423Z,9.90
2022-11-15T02:42:50.413Z,9.90
2022-11-15T02:45:51.504Z,9.90
2022-11-15T02:48:37.997Z,9.90
2022-11-15T02:51:24.726Z,10.00
2022-11-15T02:54:20.911Z,9.90
2022-11-15T02:57:13.890Z,10.00
2022-11-15T03:00:16.683Z,10.00
2022-11-15T03:03:40.336Z,10.00
2022-11-15T03:06:49.016Z,9.90
2022-11-15T03:09:51.373Z,10.00
2022-11-15T03:12:42.453Z,10.00
2022-11-15T03:15:31.426Z,10.10
2022-11-15T03:18:53.330Z,10.10
2022-11-15T03:21:52.157Z,10.10
2022-11-15T03:24:39.244Z,10.10
2022-11-15T03:27:29.482Z,10.20
2022-11-15T03:30:16.856Z,10.20
2022-11-15T03:33:04.872Z,10.30
2022-11-15T03:35:53.732Z,10.30
2022-11-15T03:38:40.842Z,10.40
2022-11-15T03:41:37.304Z,10.40
2022-11-15T03:44:35.515Z,10.40
2022-11-15T03:47:30.833Z,10.50
2022-11-15T03:50:19.917Z,10.50
2022-11-15T03:53:07.366Z,10.50
2022-11-15T03:55:54.131Z,10.50
2022-11-15T03:58:40.381Z,10.50
2022-11-15T04:01:26.647Z,10.50
2022-11-15T04:04:13.087Z,10.50
2022-11-15T04:06:59.545Z,10.50
2022-11-15T04:10:03.759Z,10.50
2022-11-15T04:12:50.205Z,10.50
2022-11-15T04:15:36.755Z,10.50
2022-11-15T04:18:23.001Z,10.50
2022-11-15T04:21:28.357Z,10.50
2022-11-15T04:24:14.659Z,10.50
2022-11-15T04:27:01.210Z,10.50
2022-11-15T04:29:47.774Z,10.60
2022-11-15T04:32:33.940Z,10.60
2022-11-15T04:35:20.315Z,10.70
2022-11-15T04:38:08.963Z,10.70
2022-11-15T04:40:55.017Z,10.80
2022-11-15T04:43:41.200Z,10.90
2022-11-15T04:46:28.076Z,11.00
2022-11-15T04:49:14.056Z,11.00
2022-11-15T04:52:00.401Z,11.10
2022-11-15T04:54:47.005Z,11.10
2022-11-15T04:57:33.117Z,11.20
2022-11-15T05:00:19.239Z,11.30
2022-11-15T05:03:23.716Z,11.30
2022-11-15T05:06:10.129Z,11.30
2022-11-15T05:08:56.928Z,11.40
2022-11-15T05:11:43.515Z,11.50
2022-11-15T05:14:30.357Z,11.50
2022-11-15T05:17:16.655Z,11.60
2022-11-15T05:20:02.889Z,11.70
2022-11-15T05:22:52.288Z,11.70
2022-11-15T05:25:38.718Z,11.70
2022-11-15T05:28:25.021Z,11.80
2022-11-15T05:31:16.728Z,11.90
2022-11-15T05:34:08.221Z,11.90
2022-11-15T05:36:55.279Z,11.90
2022-11-15T05:39:41.520Z,12.00
2022-11-15T05:42:29.006Z,12.00
2022-11-15T05:45:15.854Z,12.00
2022-11-15T05:48:06.790Z,12.10
2022-11-15T05:50:53.633Z,12.10
2022-11-15T05:53:39.999Z,12.10
2022-11-15T05:56:26.705Z,12.10
2022-11-15T05:59:13.051Z,12.20
2022-11-15T06:01:59.310Z,12.20
2022-11-15T06:04:46.076Z,12.20
2022-11-15T06:07:32.253Z,12.20
2022-11-15T06:10:18.647Z,12.20
2022-11-15T06:13:05.888Z,12.20
2022-11-15T06:15:51.934Z,12.20
2022-11-15T06:18:39.105Z,12.20
2022-11-15T06:21:25.602Z,12.20
2022-11-15T06:24:12.395Z,12.30
2022-11-15T06:26:58.749Z,12.30
2022-11-15T06:29:44.653Z,12.30
2022-11-15T06:32:31.825Z,12.30
2022-11-15T06:35:18.616Z,12.30
2022-11-15T06:38:07.194Z,12.30
2022-11-15T06:40:53.455Z,12.30
2022-11-15T06:43:40.200Z,12.30
2022-11-15T06:46:26.297Z,12.30
2022-11-15T06:49:12.491Z,12.30
2022-11-15T06:51:58.962Z,12.30
2022-11-15T06:54:45.409Z,12.20
2022-11-15T06:57:31.365Z,12.20
2022-11-15T07:00:19.351Z,12.10
2022-11-15T07:03:05.943Z,12.10
2022-11-15T07:05:56.823Z,12.00
2022-11-15T07:08:43.310Z,11.90
2022-11-15T07:11:29.459Z,11.90
2022-11-15T07:14:15.531Z,11.90
2022-11-15T07:17:04.196Z,11.90
2022-11-15T07:19:50.554Z,11.90
2022-11-15T07:22:36.847Z,11.90
2022-11-15T07:25:22.980Z,11.90
2022-11-15T07:28:09.195Z,11.90
2022-11-15T07:30:55.484Z,11.80
2022-11-15T07:33:41.661Z,11.80
2022-11-15T07:36:27.962Z,11.80
2022-11-15T07:39:15.100Z,11.70
2022-11-15T07:42:23.168Z,11.60
2022-11-15T07:45:09.492Z,11.60
2022-11-15T07:47:57.016Z,11.50
2022-11-15T07:50:44.053Z,11.40
2022-11-15T07:53:30.755Z,11.40
2022-11-15T07:56:17.140Z,11.30
2022-11-15T07:59:03.324Z,11.30
2022-11-15T08:01:49.998Z,11.30
2022-11-15T08:04:36.525Z,11.20
2022-11-15T08:07:22.644Z,11.20
2022-11-15T08:10:09.255Z,11.20
2022-11-15T08:13:03.596Z,11.20
2022-11-15T08:15:57.420Z,11.20
2022-11-15T08:18:43.792Z,11.20
2022-11-15T08:21:29.713Z,11.20
2022-11-15T08:24:15.917Z,11.20
2022-11-15T08:27:02.315Z,11.20
2022-11-15T08:29:50.000Z,11.20
2022-11-15T08:32:36.366Z,11.20
2022-11-15T08:35:27.679Z,11.20
2022-11-15T08:38:15.395Z,11.20
2022-11-15T08:41:07.054Z,11.20
2022-11-15T08:43:53.757Z,11.30
2022-11-15T08:46:39.859Z,11.30
2022-11-15T08:49:25.773Z,11.30
2022-11-15T08:52:11.941Z,11.30
2022-11-15T08:54:58.253Z,11.30
2022-11-15T08:57:44.388Z,11.40
2022-11-15T09:00:31.019Z,11.40
2022-11-15T09:03:17.421Z,11.40
2022-11-15T09:06:03.698Z,11.50
2022-11-15T09:08:49.568Z,11.50
2022-11-15T09:11:35.484Z,11.50
2022-11-15T09:14:21.726Z,11.50
2022-11-15T09:17:11.421Z,11.60
2022-11-15T09:19:57.679Z,11.60
2022-11-15T09:22:44.212Z,11.60
2022-11-15T09:25:31.255Z,11.60
2022-11-15T09:28:17.841Z,11.60
2022-11-15T09:31:05.846Z,11.60
2022-11-15T09:33:53.531Z,11.60
2022-11-15T09:36:39.653Z,11.60
2022-11-15T09:39:25.720Z,11.70
2022-11-15T09:42:33.865Z,11.70
2022-11-15T09:45:40.020Z,11.70
2022-11-15T09:48:54.165Z,11.70
2022-11-15T09:51:47.812Z,11.70
2022-11-15T09:57:48.515Z,11.70
2022-11-15T10:00:45.414Z,11.80
2022-11-15T10:03:33.138Z,11.80
2022-11-15T10:06:04.961Z,11.80
2022-11-15T10:08:51.178Z,11.90
2022-11-15T10:11:38.608Z,11.90
2022-11-15T10:14:21.869Z,11.90
2022-11-15T10:17:11.678Z,11.90
2022-11-15T10:20:16.562Z,11.90
2022-11-15T10:22:51.696Z,11.90
2022-11-15T10:25:36.014Z,12.00
2022-11-15T10:28:22.085Z,12.00
2022-11-15T10:30:58.300Z,12.00
2022-11-15T10:33:40.148Z,12.00
2022-11-15T10:36:10.812Z,12.00
2022-11-15T10:38:50.623Z,12.10
2022-11-15T10:41:31.202Z,12.10
2022-11-15T10:44:08.007Z,12.10
2022-11-15T10:46:46.695Z,12.10
2022-11-15T10:49:22.517Z,12.10
2022-11-15T10:51:51.980Z,12.10
2022-11-15T10:54:28.729Z,12.10
2022-11-15T10:56:59.501Z,12.10
2022-11-15T10:59:37.744Z,12.20
2022-11-15T11:02:30.148Z,12.30
2022-11-15T11:04:59.037Z,12.30
2022-11-15T11:07:33.674Z,12.30
2022-11-15T11:10:49.163Z,12.30
2022-11-15T11:13:22.745Z,12.30
2022-11-15T11:16:16.255Z,12.30
2022-11-15T11:18:59.416Z,12.30
2022-11-15T11:22:04.372Z,12.20
2022-11-15T11:24:41.689Z,12.20
2022-11-15T11:27:22.822Z,12.30
2022-11-15T11:30:01.799Z,12.30
2022-11-15T11:33:04.551Z,12.30
2022-11-15T11:36:09.681Z,12.30
2022-11-15T11:38:46.242Z,12.30
2022-11-15T11:41:45.161Z,12.20
2022-11-15T11:44:33.969Z,12.20
2022-11-15T11:47:26.449Z,12.20
2022-11-15T11:50:01.489Z,12.20
2022-11-15T11:52:58.343Z,12.20
2022-11-15T11:55:39.631Z,12.30
2022-11-15T11:58:40.008Z,12.20
2022-11-15T12:01:19.257Z,12.30
2022-11-15T12:03:49.093Z,12.20
2022-11-15T12:06:41.490Z,12.20
2022-11-15T12:09:42.746Z,12.30
2022-11-15T12:12:29.440Z,12.30
2022-11-15T12:15:17.886Z,12.30
2022-11-15T12:17:47.031Z,12.30
2022-11-15T12:20:19.981Z,12.20
2022-11-15T12:23:14.551Z,12.30
2022-11-15T12:26:01.425Z,12.30
2022-11-15T12:28:36.183Z,12.30
2022-11-15T12:31:12.841Z,12.30
2022-11-15T12:33:55.642Z,12.30
2022-11-15T12:36:52.622Z,12.40
2022-11-15T12:39:20.379Z,12.40
2022-11-15T12:41:56.992Z,12.40
2022-11-15T12:44:36.981Z,12.40
2022-11-15T12:47:25.260Z,12.40
2022-11-15T12:49:53.725Z,12.40
2022-11-15T12:52:21.775Z,12.40
2022-11-15T12:55:31.113Z,12.50
2022-11-15T12:58:28.029Z,12.50
2022-11-15T13:00:55.717Z,12.50
2022-11-15T13:03:25.852Z,12.60
2022-11-15T13:05:58.744Z,12.60
2022-11-15T13:08:40.964Z,12.60
2022-11-15T13:11:45.671Z,12.60
2022-11-15T13:14:38.520Z,12.60
2022-11-15T13:17:27.475Z,12.70
2022-11-15T13:20:08.226Z,12.70
2022-11-15T13:22:51.822Z,12.70
2022-11-15T13:25:40.458Z,12.70
2022-11-15T13:28:17.001Z,12.80
2022-11-15T13:30:48.271Z,12.80
2022-11-15T13:33:24.770Z,12.90
2022-11-15T13:35:55.884Z,13.00
2022-11-15T13:38:40.951Z,13.10
2022-11-15T13:41:23.058Z,13.10
2022-11-15T13:43:53.189Z,13.20
2022-11-15T13:46:34.656Z,13.40
2022-11-15T13:49:13.699Z,13.50
2022-11-15T13:51:54.692Z,13.50
2022-11-15T13:54:22.562Z,13.50
2022-11-15T13:56:57.065Z,13.60
2022-11-15T13:59:38.002Z,13.60
2022-11-15T14:02:20.975Z,13.60
2022-11-15T14:04:52.327Z,13.60
2022-11-15T14:07:24.309Z,13.50
2022-11-15T14:09:52.633Z,13.50
2022-11-15T14:12:26.110Z,13.40
2022-11-15T14:14:54.722Z,13.40
2022-11-15T14:17:39.684Z,13.30
2022-11-15T14:20:31.971Z,13.20
2022-11-15T14:23:26.001Z,13.20
2022-11-15T14:26:01.279Z,13.20
2022-11-15T14:28:39.112Z,13.10
2022-11-15T14:31:14.227Z,13.10
2022-11-15T14:33:42.712Z,13.10
2022-11-15T14:36:17.521Z,13.10
2022-11-15T14:38:45.370Z,13.20
2022-11-15T14:41:24.025Z,13.20
2022-11-15T14:44:07.823Z,13.20
2022-11-15T14:46:35.751Z,13.20
2022-11-15T14:49:03.749Z,13.20
2022-11-15T14:51:33.949Z,13.20
2022-11-15T14:54:02.164Z,13.10
2022-11-15T14:56:30.027Z,13.10
2022-11-15T14:58:59.152Z,13.00
2022-11-15T15:01:28.046Z,12.90
2022-11-15T15:03:58.936Z,12.90
2022-11-15T15:06:27.769Z,12.80
2022-11-15T15:08:55.475Z,12.80
2022-11-15T15:11:32.062Z,12.70
2022-11-15T15:14:02.154Z,12.70
2022-11-15T15:16:30.830Z,12.70
2022-11-15T15:19:01.042Z,12.70
2022-11-15T15:21:35.247Z,12.60
2022-11-15T15:24:05.232Z,12.60
2022-11-15T15:26:37.386Z,12.50
2022-11-15T15:29:06.318Z,12.50
2022-11-15T15:31:34.562Z,12.40
2022-11-15T15:34:03.381Z,12.40
2022-11-15T15:36:34.510Z,12.30
2022-11-15T15:39:04.796Z,12.30
2022-11-15T15:41:34.897Z,12.20
2022-11-15T15:44:03.283Z,12.20
2022-11-15T15:46:32.241Z,12.20
2022-11-15T15:49:06.240Z,12.10
2022-11-15T15:51:37.599Z,12.00
2022-11-15T15:54:08.673Z,12.00
2022-11-15T15:56:36.796Z,12.00
2022-11-15T15:59:04.502Z,11.90
2022-11-15T16:01:32.267Z,11.90
2022-11-15T16:03:59.996Z,11.90
2022-11-15T16:06:36.540Z,11.90
2022-11-15T16:09:20.630Z,11.90
2022-11-15T16:11:48.726Z,11.90
2022-11-15T16:14:16.337Z,11.80
2022-11-15T16:16:55.961Z,11.90
2022-11-15T16:19:23.631Z,11.90
2022-11-15T16:21:53.131Z,11.90
2022-11-15T16:24:21.129Z,11.90
2022-11-15T16:26:49.476Z,11.90
2022-11-15T16:29:20.573Z,11.90
2022-11-15T16:31:48.178Z,11.90
2022-11-15T16:34:15.765Z,11.90
2022-11-15T16:36:43.376Z,11.90
2022-11-15T16:39:14.709Z,11.80
2022-11-15T16:41:47.658Z,11.80
2022-11-15T16:44:19.564Z,11.70
2022-11-15T16:46:52.028Z,11.70
2022-11-15T16:49:23.630Z,11.60
2022-11-15T16:55:01.580Z,11.50
2022-11-15T16:58:01.903Z,11.50
2022-11-15T17:00:29.532Z,11.80
2022-11-15T17:02:58.281Z,11.40
2022-11-15T17:05:32.225Z,11.40
2022-11-15T17:08:25.773Z,11.40
2022-11-15T17:10:59.122Z,11.30
2022-11-15T17:13:26.769Z,11.20
2022-11-15T17:16:07.728Z,11.20
2022-11-15T17:18:36.377Z,11.10
2022-11-15T17:21:18.095Z,11.10
2022-11-15T17:24:06.021Z,11.10
2022-11-15T17:26:39.187Z,11.00
2022-11-15T17:29:08.504Z,11.00
2022-11-15T17:31:37.290Z,11.10
2022-11-15T17:34:06.608Z,11.10
2022-11-15T17:36:34.743Z,11.10
2022-11-15T17:39:03.810Z,11.10
2022-11-15T17:41:35.836Z,11.10
2022-11-15T17:44:13.639Z,11.10
2022-11-15T17:46:54.693Z,11.00
2022-11-15T17:49:22.349Z,11.00
2022-11-15T17:51:50.339Z,11.00
2022-11-15T17:54:19.241Z,10.90
2022-11-15T17:57:01.829Z,11.00
2022-11-15T17:59:37.075Z,11.00
2022-11-15T18:02:06.582Z,11.00
2022-11-15T18:04:34.241Z,11.00
2022-11-15T18:07:01.964Z,10.90
2022-11-15T18:09:29.621Z,10.90
2022-11-15T18:11:58.666Z,10.90
2022-11-15T18:14:26.686Z,10.90
2022-11-15T18:16:55.096Z,10.90
2022-11-15T18:19:25.656Z,10.90
2022-11-15T18:22:04.458Z,10.80
2022-11-15T18:24:39.283Z,10.80
2022-11-15T18:27:07.315Z,10.70
2022-11-15T18:29:37.736Z,10.70
2022-11-15T18:32:11.668Z,10.70
2022-11-15T18:34:39.696Z,10.60
2022-11-15T18:37:07.664Z,10.60
2022-11-15T18:39:35.459Z,10.50
2022-11-15T18:42:03.348Z,10.50
2022-11-15T18:44:31.237Z,10.40
2022-11-15T18:47:01.205Z,10.40
2022-11-15T18:49:31.026Z,10.30
2022-11-15T18:54:47.744Z,10.20
2022-11-15T18:57:19.025Z,10.10
2022-11-15T18:59:54.555Z,10.00
2022-11-15T19:02:22.323Z,10.00
2022-11-15T19:04:53.140Z,10.00
2022-11-15T19:07:21.127Z,10.00
2022-11-15T19:09:48.874Z,10.00
2022-11-15T19:12:16.513Z,9.90
2022-11-15T19:14:44.650Z,9.90
2022-11-15T19:17:12.247Z,9.80
2022-11-15T19:19:39.850Z,9.80
2022-11-15T19:22:07.488Z,9.70
2022-11-15T19:24:35.232Z,9.60
2022-11-15T19:27:02.870Z,9.50
2022-11-15T19:29:30.430Z,9.50
2022-11-15T19:31:58.003Z,9.50
2022-11-15T19:34:25.668Z,9.50
2022-11-15T19:36:56.628Z,9.50
2022-11-15T19:39:24.267Z,9.50
2022-11-15T19:41:51.959Z,9.50
2022-11-15T19:44:19.852Z,9.50
2022-11-15T19:46:47.933Z,9.60
2022-11-15T19:49:15.581Z,9.60
2022-11-15T19:51:45.219Z,9.60
2022-11-15T19:54:13.765Z,9.60
2022-11-15T19:56:41.540Z,9.60
2022-11-15T19:59:11.709Z,9.50
2022-11-15T20:01:42.689Z,9.50
2022-11-15T20:04:10.459Z,9.50
2022-11-15T20:06:41.041Z,9.50
2022-11-15T20:09:12.873Z,9.50
2022-11-15T20:11:40.574Z,9.50
2022-11-15T20:14:09.688Z,9.40
2022-11-15T20:16:37.643Z,9.40
2022-11-15T20:19:05.375Z,9.40
2022-11-15T20:21:33.056Z,9.40
2022-11-15T20:24:00.783Z,9.30
2022-11-15T20:26:29.181Z,9.30
2022-11-15T20:29:01.214Z,9.30
2022-11-15T20:31:29.933Z,9.30
2022-11-15T20:33:57.783Z,9.30
2022-11-15T20:36:25.544Z,9.30
2022-11-15T20:38:57.944Z,9.30
2022-11-15T20:41:26.092Z,9.30
2022-11-15T20:43:53.797Z,9.30
2022-11-15T20:46:21.436Z,9.30
2022-11-15T20:48:49.183Z,9.30
2022-11-15T20:51:18.745Z,9.20
2022-11-15T20:53:47.462Z,9.20
2022-11-15T20:56:18.105Z,9.10
2022-11-15T20:58:53.394Z,9.10
2022-11-15T21:01:24.993Z,9.00
2022-11-15T21:03:56.640Z,9.00
2022-11-15T21:06:25.618Z,8.90
2022-11-15T21:09:12.956Z,8.90
2022-11-15T21:11:59.938Z,8.80
2022-11-15T21:14:27.727Z,8.80
2022-11-15T21:16:55.401Z,8.80
2022-11-15T21:19:28.806Z,8.70
2022-11-15T21:22:01.303Z,8.70
2022-11-15T21:24:28.999Z,8.70
2022-11-15T21:26:56.950Z,8.70
2022-11-15T21:29:24.970Z,8.70
2022-11-15T21:31:53.598Z,8.70
2022-11-15T21:34:21.525Z,8.70
2022-11-15T21:36:52.249Z,8.50
2022-11-15T21:39:20.438Z,8.70
2022-11-15T21:41:51.670Z,8.80
2022-11-15T21:44:19.917Z,8.80
2022-11-15T21:46:47.557Z,8.80
2022-11-15T21:49:15.417Z,8.80
2022-11-15T21:51:46.751Z,8.80
2022-11-15T21:54:14.636Z,8.70
2022-11-15T21:56:43.335Z,8.70
2022-11-15T21:59:11.072Z,8.70
2022-11-15T22:01:57.399Z,8.70
2022-11-15T22:04:27.802Z,8.60
2022-11-15T22:06:55.750Z,8.60
2022-11-15T22:09:25.786Z,8.60
2022-11-15T22:11:53.482Z,8.60
2022-11-15T22:14:21.218Z,8.50
2022-11-15T22:16:51.104Z,8.50
2022-11-15T22:19:18.706Z,8.40
2022-11-15T22:21:46.526Z,8.40
2022-11-15T22:24:14.330Z,8.30
2022-11-15T22:26:42.147Z,8.30
2022-11-15T22:29:09.757Z,8.30
2022-11-15T22:31:37.522Z,8.20
2022-11-15T22:34:05.466Z,8.20
2022-11-15T22:36:52.340Z,8.20
2022-11-15T22:39:21.017Z,8.20
2022-11-15T22:41:48.715Z,8.10
2022-11-15T22:44:16.563Z,8.10
2022-11-15T22:46:46.516Z,8.10
2022-11-15T22:49:14.116Z,8.10
2022-11-15T22:51:44.956Z,8.00
2022-11-15T22:54:12.571Z,8.00
2022-11-15T22:56:45.198Z,8.00
2022-11-15T22:59:12.982Z,8.00
2022-11-15T23:01:40.947Z,8.10
2022-11-15T23:04:10.190Z,8.10
2022-11-15T23:06:37.947Z,8.20
2022-11-15T23:09:05.783Z,8.30
2022-11-15T23:11:54.768Z,8.30
2022-11-15T23:14:22.473Z,8.30
2022-11-15T23:16:56.273Z,8.30
2022-11-15T23:19:32.630Z,8.80
2022-11-15T23:22:21.595Z,8.50
2022-11-15T23:24:53.314Z,8.40
2022-11-15T23:27:21.083Z,8.50
2022-11-15T23:30:07.674Z,8.60
2022-11-15T23:32:53.713Z,8.60
2022-11-15T23:35:21.562Z,8.70
2022-11-15T23:37:49.253Z,8.80
2022-11-15T23:40:17.176Z,8.80
2022-11-15T23:42:44.859Z,8.80
2022-11-15T23:45:12.484Z,8.80
2022-11-15T23:47:40.121Z,8.80
2022-11-15T23:50:08.268Z,8.80
2022-11-15T23:52:35.908Z,8.80
2022-11-15T23:55:03.881Z,8.80
2022-11-15T23:57:32.338Z,8.80
